Hauptseite
METAR-TAF:

METAR-TAF

Flughäfen :

Flughafen Perugia

Perugia, Italien

Breite: 43-05N, Länge: 012-30E, Höhe: 208 m

Beobachtung

Neuester Wetterbericht von vor 1 Stunde und 20 Minuten, um 02:50 UTC
Wind 3 kt aus West/Nordwest
Temperatur 16°C
Luftfeuchtigkeit 82%
Luftdruck 1017 hPa
Sichtweite 10 km oder mehr

METAR: LIRZ 160250Z AUTO 30003KT 9999 OVC075/// 16/13 Q1017

Zeit: 06:10 (04:10 UTC)

Prognose

Neuester Wetterbericht von vor 5 Stunden und 10 Minuten, um 23:00 UTC
Gültige Prognose vom 16 um 00 UTC bis 16 um 24 UTC
Wind 6 kt aus unterschiedlichen Richtungen
Sichtweite 10 km oder mehr
Leicht bewölkt in der Höhe von 4500 ft
Zeitweise
vom 16 um 14 UTC bis 16 um 18 UTC
Sichtweite: 3000 m
Regenschauer

TAF: LIRZ 152300Z 1600/1624 VRB06KT 9999 FEW045 TEMPO 1614/1618 3000 SHRA

Wetterbeobachtungen und Prognosen von mehr als 4000 Flughäfen (METAR und TAF Bericht).

Die verfügbaren Stationen werden durch gelbe und rote Markierungen auf der Karte dargestellt.

Führen Sie die Maus auf sie, um den Namen der Station zu sehen.

Darauf klicken, um die Beobachtung von Wetterbeobachtungen und Prognosen zu sehen.

Um die Karte zu ändern : klicken Sie auf den grünen Tasten mit einem schwarzen Kreuz Zum Vergrößern, auf den grünen Button mit einem Gedankenstrich zu verkleinern, oder auf die grünen Pfeile für benachbarte Karten.


METAR-TAF: